createdAt,value
2023-02-27T00:01:46.108Z,5.20
2023-02-27T00:04:12.617Z,5.15
2023-02-27T00:06:39.087Z,4.78
2023-02-27T00:09:05.470Z,5.13
2023-02-27T00:11:31.900Z,4.53
2023-02-27T00:13:58.300Z,4.95
2023-02-27T00:16:24.742Z,3.85
2023-02-27T00:18:51.139Z,3.92
2023-02-27T00:21:17.477Z,4.22
2023-02-27T00:23:43.945Z,4.32
2023-02-27T00:26:10.317Z,3.50
2023-02-27T00:28:37.224Z,3.00
2023-02-27T00:31:04.652Z,3.03
2023-02-27T00:33:31.271Z,3.85
2023-02-27T00:35:58.963Z,3.20
2023-02-27T00:38:27.211Z,3.30
2023-02-27T00:40:53.948Z,3.35
2023-02-27T00:43:20.740Z,2.88
2023-02-27T00:45:48.589Z,3.13
2023-02-27T00:48:15.765Z,3.05
2023-02-27T00:50:42.886Z,2.75
2023-02-27T00:53:09.287Z,2.70
2023-02-27T00:55:36.140Z,3.03
2023-02-27T00:58:02.491Z,2.58
2023-02-27T01:00:28.999Z,2.58
2023-02-27T01:02:55.441Z,3.53
2023-02-27T01:05:23.574Z,3.00
2023-02-27T01:07:49.966Z,3.45
2023-02-27T01:10:16.603Z,3.50
2023-02-27T01:12:43.151Z,3.53
2023-02-27T01:15:11.290Z,3.10
2023-02-27T01:17:37.810Z,2.78
2023-02-27T01:20:06.347Z,3.40
2023-02-27T01:22:33.297Z,3.50
2023-02-27T01:25:00.211Z,3.63
2023-02-27T01:27:27.175Z,3.33
2023-02-27T01:29:53.671Z,3.67
2023-02-27T01:32:20.160Z,3.70
2023-02-27T01:34:46.640Z,3.40
2023-02-27T01:37:13.001Z,3.60
2023-02-27T01:39:42.251Z,3.20
2023-02-27T01:42:24.467Z,3.38
2023-02-27T01:45:17.001Z,3.42
2023-02-27T01:47:48.228Z,3.05
2023-02-27T01:50:16.473Z,3.13
2023-02-27T01:52:45.510Z,3.78
2023-02-27T01:55:13.567Z,3.80
2023-02-27T01:57:41.641Z,3.40
2023-02-27T02:00:09.246Z,3.42
2023-02-27T02:02:42.485Z,3.97
2023-02-27T02:05:09.587Z,2.88
2023-02-27T02:07:40.835Z,3.45
2023-02-27T02:10:08.113Z,3.47
2023-02-27T02:12:38.906Z,3.28
2023-02-27T02:15:06.318Z,3.30
2023-02-27T02:17:45.343Z,3.17
2023-02-27T02:20:30.294Z,3.42
2023-02-27T02:23:34.685Z,3.03
2023-02-27T02:26:29.281Z,2.90
2023-02-27T02:29:21.574Z,3.10
2023-02-27T02:31:57.145Z,2.80
2023-02-27T02:34:57.634Z,2.78
2023-02-27T02:37:49.095Z,2.90
2023-02-27T02:40:35.370Z,2.50
2023-02-27T02:43:12.169Z,2.88
2023-02-27T02:46:16.691Z,2.67
2023-02-27T02:49:02.966Z,2.95
2023-02-27T02:51:44.294Z,2.72
2023-02-27T02:54:49.137Z,3.17
2023-02-27T02:57:23.516Z,2.75
2023-02-27T03:00:09.924Z,3.05
2023-02-27T03:02:45.812Z,2.65
2023-02-27T03:05:26.153Z,3.38
2023-02-27T03:07:59.195Z,2.70
2023-02-27T03:10:33.110Z,2.67
2023-02-27T03:13:14.464Z,2.72
2023-02-27T03:15:49.635Z,2.80
2023-02-27T03:20:55.791Z,3.00
2023-02-27T03:23:29.621Z,2.63
2023-02-27T03:25:58.271Z,2.63
2023-02-27T03:28:39.027Z,3.10
2023-02-27T03:31:17.751Z,2.97
2023-02-27T03:33:51.605Z,2.70
2023-02-27T03:36:40.764Z,2.50
2023-02-27T03:39:20.653Z,3.40
2023-02-27T03:41:54.072Z,3.00
2023-02-27T03:44:55.599Z,2.92
2023-02-27T03:47:22.382Z,2.67
2023-02-27T03:49:51.059Z,2.97
2023-02-27T03:52:21.074Z,3.08
2023-02-27T03:54:57.499Z,2.97
2023-02-27T03:57:24.176Z,3.28
2023-02-27T03:59:51.193Z,2.70
2023-02-27T04:02:17.721Z,2.70
2023-02-27T04:04:44.300Z,2.50
2023-02-27T04:07:25.142Z,2.75
2023-02-27T04:10:25.780Z,2.85
2023-02-27T04:13:17.155Z,2.38
2023-02-27T04:16:00.571Z,2.63
2023-02-27T04:19:04.556Z,2.85
2023-02-27T04:21:48.695Z,2.72
2023-02-27T04:24:52.858Z,3.05
2023-02-27T04:27:25.541Z,2.60
2023-02-27T04:30:16.502Z,2.97
2023-02-27T04:32:54.324Z,3.08
2023-02-27T04:35:29.088Z,2.85
2023-02-27T04:38:02.426Z,2.75
2023-02-27T04:40:43.713Z,3.10
2023-02-27T04:43:14.750Z,3.28
2023-02-27T04:45:45.263Z,3.00
2023-02-27T04:48:22.532Z,3.40
2023-02-27T04:50:57.504Z,3.10
2023-02-27T04:53:28.869Z,2.97
2023-02-27T04:56:05.753Z,3.15
2023-02-27T04:58:36.517Z,3.50
2023-02-27T05:01:14.373Z,3.60
2023-02-27T05:03:45.930Z,3.75
2023-02-27T05:06:15.616Z,3.80
2023-02-27T05:09:02.506Z,4.68
2023-02-27T05:11:43.734Z,4.15
2023-02-27T05:14:17.931Z,3.58
2023-02-27T05:16:54.244Z,3.83
2023-02-27T05:19:21.427Z,3.30
2023-02-27T05:22:30.764Z,3.75
2023-02-27T05:25:07.004Z,3.60
2023-02-27T05:27:43.306Z,3.30
2023-02-27T05:30:21.029Z,4.25
2023-02-27T05:33:13.516Z,4.40
2023-02-27T05:36:05.608Z,4.38
2023-02-27T05:38:37.030Z,3.50
2023-02-27T05:41:18.060Z,3.90
2023-02-27T05:43:51.332Z,3.83
2023-02-27T05:46:23.710Z,3.35
2023-02-27T05:49:05.785Z,3.65
2023-02-27T05:51:35.487Z,3.83
2023-02-27T05:54:22.058Z,4.00
2023-02-27T05:56:52.466Z,4.88
2023-02-27T05:59:29.686Z,4.85
2023-02-27T06:01:56.183Z,4.00
2023-02-27T06:04:22.668Z,5.07
2023-02-27T06:06:49.133Z,5.35
2023-02-27T06:09:16.556Z,5.68
2023-02-27T06:11:43.182Z,5.05
2023-02-27T06:14:09.606Z,5.00
2023-02-27T06:16:39.030Z,4.53
2023-02-27T06:19:06.395Z,4.70
2023-02-27T06:21:32.898Z,7.30
2023-02-27T06:23:59.340Z,8.73
2023-02-27T06:26:26.250Z,8.25
2023-02-27T06:28:52.915Z,6.68
2023-02-27T06:31:19.292Z,5.22
2023-02-27T06:33:45.627Z,4.25
2023-02-27T06:36:12.019Z,4.47
2023-02-27T06:38:38.372Z,3.88
2023-02-27T06:41:05.012Z,3.40
2023-02-27T06:43:34.603Z,3.28
2023-02-27T06:46:01.207Z,3.90
2023-02-27T06:48:27.625Z,3.40
2023-02-27T06:50:56.117Z,3.58
2023-02-27T06:53:23.925Z,3.53
2023-02-27T06:55:50.353Z,3.67
2023-02-27T06:58:17.827Z,4.05
2023-02-27T07:00:44.330Z,3.67
2023-02-27T07:03:11.919Z,3.60
2023-02-27T07:05:38.297Z,3.78
2023-02-27T07:08:04.869Z,3.70
2023-02-27T07:10:31.500Z,3.65
2023-02-27T07:12:57.877Z,3.60
2023-02-27T07:15:24.451Z,3.58
2023-02-27T07:17:50.916Z,3.30
2023-02-27T07:20:17.457Z,3.33
2023-02-27T07:22:43.845Z,3.22
2023-02-27T07:25:10.323Z,3.60
2023-02-27T07:27:36.707Z,3.83
2023-02-27T07:30:06.081Z,3.40
2023-02-27T07:32:32.579Z,3.78
2023-02-27T07:34:58.931Z,3.40
2023-02-27T07:37:27.887Z,3.60
2023-02-27T07:39:54.525Z,3.33
2023-02-27T07:42:20.870Z,3.47
2023-02-27T07:44:47.998Z,3.42
2023-02-27T07:47:14.399Z,3.10
2023-02-27T07:49:40.740Z,2.88
2023-02-27T07:52:08.206Z,3.15
2023-02-27T07:54:35.734Z,3.90
2023-02-27T07:57:02.214Z,3.20
2023-02-27T07:59:28.644Z,3.22
2023-02-27T08:01:55.116Z,3.25
2023-02-27T08:04:21.503Z,4.10
2023-02-27T08:06:47.900Z,3.45
2023-02-27T08:09:14.455Z,3.63
2023-02-27T08:11:40.916Z,3.22
2023-02-27T08:14:07.321Z,3.63
2023-02-27T08:16:33.895Z,3.25
2023-02-27T08:19:00.657Z,6.20
2023-02-27T08:21:27.880Z,4.07
2023-02-27T08:23:54.565Z,3.63
2023-02-27T08:26:21.445Z,3.10
2023-02-27T08:28:47.816Z,3.30
2023-02-27T08:31:14.211Z,3.05
2023-02-27T08:33:40.637Z,3.10
2023-02-27T08:36:07.992Z,2.90
2023-02-27T08:38:34.418Z,3.33
2023-02-27T08:41:00.832Z,3.42
2023-02-27T08:43:27.184Z,3.22
2023-02-27T08:45:53.874Z,2.88
2023-02-27T08:48:20.397Z,2.70
2023-02-27T08:50:46.847Z,2.30
2023-02-27T08:53:13.800Z,2.63
2023-02-27T08:55:40.393Z,2.65
2023-02-27T08:58:06.722Z,2.65
2023-02-27T09:00:33.091Z,2.20
2023-02-27T09:03:01.146Z,2.85
2023-02-27T09:07:54.121Z,2.60
2023-02-27T09:10:20.519Z,2.55
2023-02-27T09:12:49.089Z,2.60
2023-02-27T09:15:15.756Z,2.40
2023-02-27T09:17:42.155Z,2.30
2023-02-27T09:20:09.802Z,2.63
2023-02-27T09:22:36.179Z,2.50
2023-02-27T09:25:02.872Z,2.22
2023-02-27T09:27:29.312Z,2.00
2023-02-27T09:29:56.310Z,2.30
2023-02-27T09:32:23.626Z,1.83
2023-02-27T09:34:50.230Z,2.25
2023-02-27T09:37:17.585Z,1.98
2023-02-27T09:39:46.002Z,1.65
2023-02-27T09:42:25.981Z,1.98
2023-02-27T09:44:55.764Z,1.98
2023-02-27T09:47:30.367Z,2.13
2023-02-27T09:50:03.432Z,2.00
2023-02-27T09:52:31.780Z,2.25
2023-02-27T09:54:58.965Z,2.30
2023-02-27T09:57:49.483Z,2.00
2023-02-27T10:00:40.486Z,2.40
2023-02-27T10:03:34.917Z,1.90
2023-02-27T10:06:24.451Z,2.75
2023-02-27T10:09:09.059Z,2.22
2023-02-27T10:11:43.503Z,2.00
2023-02-27T10:14:42.086Z,2.00
2023-02-27T10:17:27.727Z,2.85
2023-02-27T10:19:54.969Z,2.08
2023-02-27T10:22:28.617Z,2.10
2023-02-27T10:25:02.581Z,2.50
2023-02-27T10:27:30.407Z,2.13
2023-02-27T10:30:23.522Z,2.40
2023-02-27T10:33:38.345Z,2.67
2023-02-27T10:36:15.939Z,2.15
2023-02-27T10:38:58.733Z,2.10
2023-02-27T10:41:27.453Z,2.30
2023-02-27T10:43:58.611Z,2.00
2023-02-27T10:46:34.396Z,2.10
2023-02-27T10:49:05.383Z,2.03
2023-02-27T10:51:34.962Z,2.20
2023-02-27T10:54:21.901Z,1.77
2023-02-27T10:56:52.379Z,2.25
2023-02-27T10:59:40.627Z,2.10
2023-02-27T11:02:22.641Z,2.28
2023-02-27T11:04:54.455Z,2.00
2023-02-27T11:07:31.028Z,2.10
2023-02-27T11:10:04.779Z,1.92
2023-02-27T11:12:35.076Z,2.33
2023-02-27T11:15:22.532Z,2.22
2023-02-27T11:17:48.967Z,2.20
2023-02-27T11:20:37.513Z,2.50
2023-02-27T11:23:07.596Z,2.20
2023-02-27T11:25:34.109Z,2.70
2023-02-27T11:28:21.473Z,2.33
2023-02-27T11:31:05.509Z,2.67
2023-02-27T11:33:38.161Z,2.60
2023-02-27T11:36:05.562Z,2.63
2023-02-27T11:38:32.813Z,2.65
2023-02-27T11:41:05.509Z,2.13
2023-02-27T11:43:36.906Z,2.53
2023-02-27T11:46:33.529Z,1.90
2023-02-27T11:49:20.181Z,2.03
2023-02-27T11:52:08.411Z,1.90
2023-02-27T11:54:45.466Z,2.30
2023-02-27T11:57:20.330Z,2.00
2023-02-27T11:59:52.650Z,2.10
2023-02-27T12:02:31.020Z,2.40
2023-02-27T12:05:06.446Z,2.63
2023-02-27T12:07:42.587Z,2.30
2023-02-27T12:10:20.111Z,2.58
2023-02-27T12:13:04.979Z,2.10
2023-02-27T12:15:42.709Z,2.13
2023-02-27T12:18:21.120Z,1.90
2023-02-27T12:20:57.721Z,2.30
2023-02-27T12:23:42.963Z,2.00
2023-02-27T12:26:31.682Z,1.83
2023-02-27T12:29:04.638Z,1.90
2023-02-27T12:31:38.758Z,2.10
2023-02-27T12:34:25.816Z,1.92
2023-02-27T12:36:53.697Z,1.63
2023-02-27T12:39:24.782Z,1.98
2023-02-27T12:42:16.158Z,2.05
2023-02-27T12:45:18.443Z,2.15
2023-02-27T12:48:09.444Z,2.00
2023-02-27T12:50:50.296Z,2.75
2023-02-27T12:53:44.498Z,1.98
2023-02-27T12:56:20.289Z,1.50
2023-02-27T12:58:52.533Z,2.33
2023-02-27T13:01:46.266Z,1.50
2023-02-27T13:04:31.888Z,1.58
2023-02-27T13:07:04.864Z,1.70
2023-02-27T13:09:43.716Z,1.80
2023-02-27T13:12:34.162Z,1.60
2023-02-27T13:15:11.560Z,1.60
2023-02-27T13:17:44.090Z,1.90
2023-02-27T13:20:32.604Z,2.20
2023-02-27T13:23:23.320Z,1.50
2023-02-27T13:25:52.717Z,1.60
2023-02-27T13:28:24.110Z,1.80
2023-02-27T13:31:15.317Z,1.90
2023-02-27T13:33:49.879Z,1.63
2023-02-27T13:36:27.064Z,1.77
2023-02-27T13:38:57.556Z,2.35
2023-02-27T13:41:23.842Z,2.20
2023-02-27T13:44:20.229Z,2.67
2023-02-27T13:46:47.122Z,2.88
2023-02-27T13:49:28.737Z,2.67
2023-02-27T13:51:59.360Z,2.22
2023-02-27T13:54:32.213Z,2.53
2023-02-27T13:56:58.545Z,2.45
2023-02-27T13:59:42.216Z,2.20
2023-02-27T14:02:11.484Z,2.40
2023-02-27T14:04:51.317Z,2.38
2023-02-27T14:07:23.483Z,2.80
2023-02-27T14:09:53.383Z,2.78
2023-02-27T14:12:48.330Z,2.67
2023-02-27T14:15:17.420Z,2.65
2023-02-27T14:17:47.504Z,2.33
2023-02-27T14:20:16.826Z,2.80
2023-02-27T14:23:03.210Z,2.30
2023-02-27T14:25:31.975Z,2.72
2023-02-27T14:28:00.156Z,2.47
2023-02-27T14:30:31.263Z,2.67
2023-02-27T14:33:08.197Z,2.30
2023-02-27T14:35:36.105Z,2.47
2023-02-27T14:38:09.617Z,2.60
2023-02-27T14:40:43.033Z,2.55
2023-02-27T14:43:18.475Z,2.60
2023-02-27T14:45:44.882Z,2.33
2023-02-27T14:48:12.912Z,2.30
2023-02-27T14:50:41.348Z,2.55
2023-02-27T14:53:22.240Z,2.03
2023-02-27T14:56:00.265Z,2.45
2023-02-27T14:58:27.678Z,2.47
2023-02-27T15:01:12.382Z,2.50
2023-02-27T15:04:00.324Z,2.33
2023-02-27T15:09:02.813Z,2.53
2023-02-27T15:11:29.769Z,2.63
2023-02-27T15:14:06.432Z,2.70
2023-02-27T15:16:37.384Z,2.67
2023-02-27T15:19:20.186Z,2.58
2023-02-27T15:21:52.327Z,2.88
2023-02-27T15:24:24.956Z,2.65
2023-02-27T15:26:54.892Z,2.40
2023-02-27T15:29:24.948Z,2.20
2023-02-27T15:31:52.658Z,2.60
2023-02-27T15:34:19.446Z,2.30
2023-02-27T15:36:50.635Z,2.22
2023-02-27T15:39:20.721Z,2.75
2023-02-27T15:41:53.119Z,2.00
2023-02-27T15:44:25.993Z,2.53
2023-02-27T15:46:53.520Z,2.95
2023-02-27T15:49:22.750Z,3.03
2023-02-27T15:51:59.263Z,2.72
2023-02-27T15:54:26.160Z,2.28
2023-02-27T15:56:53.691Z,2.58
2023-02-27T15:59:20.439Z,2.45
2023-02-27T16:01:49.411Z,2.60
2023-02-27T16:04:35.595Z,2.38
2023-02-27T16:07:07.327Z,2.47
2023-02-27T16:09:35.926Z,2.33
2023-02-27T16:12:29.829Z,2.15
2023-02-27T16:15:31.140Z,2.38
2023-02-27T16:18:08.361Z,3.03
2023-02-27T16:20:40.481Z,3.08
2023-02-27T16:23:17.124Z,2.60
2023-02-27T16:26:27.204Z,2.63
2023-02-27T16:28:56.685Z,2.55
2023-02-27T16:31:30.653Z,3.05
2023-02-27T16:34:00.918Z,2.78
2023-02-27T16:36:32.303Z,3.03
2023-02-27T16:38:58.932Z,2.97
2023-02-27T16:41:25.867Z,2.70
2023-02-27T16:43:53.358Z,2.50
2023-02-27T16:46:20.494Z,2.95
2023-02-27T16:48:53.290Z,2.50
2023-02-27T16:51:23.761Z,2.40
2023-02-27T16:53:52.336Z,2.40
2023-02-27T16:56:23.686Z,2.10
2023-02-27T16:58:55.558Z,2.28
2023-02-27T17:01:22.000Z,2.03
2023-02-27T17:03:48.414Z,2.50
2023-02-27T17:06:15.286Z,2.33
2023-02-27T17:08:43.914Z,2.38
2023-02-27T17:11:10.486Z,2.22
2023-02-27T17:13:37.340Z,2.58
2023-02-27T17:16:06.263Z,2.58
2023-02-27T17:18:33.624Z,2.65
2023-02-27T17:21:00.956Z,2.10
2023-02-27T17:23:27.384Z,3.00
2023-02-27T17:25:54.332Z,2.38
2023-02-27T17:28:21.920Z,2.25
2023-02-27T17:30:50.145Z,2.13
2023-02-27T17:33:17.065Z,2.30
2023-02-27T17:35:43.522Z,1.92
2023-02-27T17:38:09.929Z,2.20
2023-02-27T17:40:39.354Z,1.95
2023-02-27T17:43:05.981Z,2.38
2023-02-27T17:45:32.424Z,2.10
2023-02-27T17:47:58.932Z,2.00
2023-02-27T17:50:25.323Z,1.90
2023-02-27T17:52:51.694Z,2.20
2023-02-27T17:55:18.884Z,2.40
2023-02-27T17:57:45.300Z,2.40
2023-02-27T18:00:14.708Z,2.30
2023-02-27T18:02:43.873Z,2.90
2023-02-27T18:05:10.464Z,2.35
2023-02-27T18:07:36.936Z,2.33
2023-02-27T18:10:05.434Z,2.95
2023-02-27T18:12:32.102Z,2.42
2023-02-27T18:14:58.494Z,2.70
2023-02-27T18:17:24.849Z,2.50
2023-02-27T18:19:51.268Z,2.75
2023-02-27T18:22:17.834Z,3.00
2023-02-27T18:24:44.378Z,3.45
2023-02-27T18:27:11.004Z,2.58
2023-02-27T18:29:37.468Z,2.60
2023-02-27T18:32:04.398Z,2.50
2023-02-27T18:34:31.606Z,2.65
2023-02-27T18:36:58.371Z,2.90
2023-02-27T18:39:24.952Z,3.55
2023-02-27T18:41:51.459Z,3.17
2023-02-27T18:44:17.966Z,2.90
2023-02-27T18:46:44.447Z,2.55
2023-02-27T18:49:10.896Z,2.90
2023-02-27T18:51:37.642Z,3.33
2023-02-27T18:54:05.061Z,3.88
2023-02-27T18:56:32.733Z,3.17
2023-02-27T18:59:04.905Z,3.30
2023-02-27T19:01:34.613Z,3.35
2023-02-27T19:04:05.230Z,3.63
2023-02-27T19:06:34.098Z,3.30
2023-02-27T19:11:33.069Z,4.30
2023-02-27T19:14:00.793Z,5.32
2023-02-27T19:16:27.963Z,4.22
2023-02-27T19:18:59.161Z,3.22
2023-02-27T19:21:27.340Z,3.47
2023-02-27T19:24:14.471Z,2.97
2023-02-27T19:26:43.092Z,3.20
2023-02-27T19:29:13.368Z,17.70
2023-02-27T19:31:43.782Z,11.23
2023-02-27T19:34:10.914Z,4.75
2023-02-27T19:36:37.398Z,4.55
2023-02-27T19:39:04.223Z,4.88
2023-02-27T19:41:33.784Z,5.40
2023-02-27T19:44:00.321Z,4.47
2023-02-27T19:46:31.194Z,4.32
2023-02-27T19:49:00.768Z,4.30
2023-02-27T19:51:28.116Z,4.40
2023-02-27T19:53:57.124Z,4.28
2023-02-27T19:56:30.157Z,4.38
2023-02-27T19:58:57.662Z,4.50
2023-02-27T20:01:33.144Z,4.90
2023-02-27T20:04:00.446Z,4.88
2023-02-27T20:06:30.208Z,4.38
2023-02-27T20:08:58.363Z,5.03
2023-02-27T20:11:29.435Z,5.13
2023-02-27T20:13:56.762Z,4.68
2023-02-27T20:16:26.118Z,5.30
2023-02-27T20:18:53.048Z,4.65
2023-02-27T20:21:22.566Z,5.10
2023-02-27T20:23:51.523Z,4.97
2023-02-27T20:26:26.306Z,4.45
2023-02-27T20:28:55.028Z,5.13
2023-02-27T20:31:25.466Z,5.05
2023-02-27T20:33:51.892Z,4.60
2023-02-27T20:36:18.497Z,4.70
2023-02-27T20:38:44.983Z,4.32
2023-02-27T20:41:17.577Z,4.20
2023-02-27T20:43:44.606Z,3.83
2023-02-27T20:46:14.691Z,4.07
2023-02-27T20:48:42.170Z,4.40
2023-02-27T20:51:11.917Z,4.35
2023-02-27T20:53:40.395Z,4.68
2023-02-27T20:56:07.346Z,5.13
2023-02-27T20:58:34.392Z,4.45
2023-02-27T21:01:04.088Z,4.20
2023-02-27T21:03:38.557Z,4.75
2023-02-27T21:06:07.461Z,5.00
2023-02-27T21:08:38.688Z,4.78
2023-02-27T21:11:14.364Z,4.25
2023-02-27T21:13:40.770Z,4.50
2023-02-27T21:16:09.828Z,5.18
2023-02-27T21:18:37.788Z,4.57
2023-02-27T21:21:06.722Z,4.65
2023-02-27T21:23:34.509Z,5.68
2023-02-27T21:26:00.867Z,6.10
2023-02-27T21:28:27.244Z,5.70
2023-02-27T21:30:54.594Z,5.88
2023-02-27T21:33:23.930Z,6.72
2023-02-27T21:35:50.401Z,5.57
2023-02-27T21:38:16.782Z,5.20
2023-02-27T21:40:43.261Z,4.90
2023-02-27T21:43:09.731Z,4.93
2023-02-27T21:45:41.324Z,4.68
2023-02-27T21:48:08.096Z,5.00
2023-02-27T21:50:35.811Z,5.13
2023-02-27T21:53:02.172Z,4.60
2023-02-27T21:55:28.550Z,4.72
2023-02-27T21:57:54.959Z,4.40
2023-02-27T22:00:23.021Z,4.82
2023-02-27T22:02:49.443Z,4.43
2023-02-27T22:05:15.945Z,4.40
2023-02-27T22:07:42.415Z,4.05
2023-02-27T22:10:09.625Z,4.35
2023-02-27T22:12:36.077Z,4.72
2023-02-27T22:15:02.711Z,4.30
2023-02-27T22:17:29.097Z,5.35
2023-02-27T22:19:55.451Z,4.38
2023-02-27T22:22:21.899Z,4.40
2023-02-27T22:24:48.532Z,4.55
2023-02-27T22:27:15.178Z,4.95
2023-02-27T22:29:43.052Z,4.40
2023-02-27T22:32:09.589Z,4.43
2023-02-27T22:34:35.996Z,4.22
2023-02-27T22:37:02.356Z,4.30
2023-02-27T22:39:28.717Z,4.13
2023-02-27T22:41:56.821Z,4.05
2023-02-27T22:44:23.452Z,4.47
2023-02-27T22:46:50.226Z,4.70
2023-02-27T22:49:21.970Z,5.15
2023-02-27T22:51:51.246Z,5.45
2023-02-27T22:54:19.520Z,5.93
2023-02-27T22:56:45.917Z,5.75
2023-02-27T22:59:12.404Z,5.75
2023-02-27T23:01:38.940Z,5.35
2023-02-27T23:04:08.427Z,5.05
2023-02-27T23:06:37.249Z,4.70
2023-02-27T23:11:31.611Z,4.85
2023-02-27T23:13:58.291Z,4.30
2023-02-27T23:16:25.102Z,4.50
2023-02-27T23:18:54.468Z,3.90
2023-02-27T23:21:24.049Z,3.65
2023-02-27T23:23:53.254Z,4.10
2023-02-27T23:26:20.877Z,4.10
2023-02-27T23:28:47.296Z,4.10
2023-02-27T23:31:13.852Z,4.25
2023-02-27T23:33:40.264Z,4.45
2023-02-27T23:36:07.049Z,5.20
2023-02-27T23:38:33.415Z,4.38
2023-02-27T23:41:06.252Z,4.95
2023-02-27T23:43:32.861Z,4.70
2023-02-27T23:46:01.232Z,5.20
2023-02-27T23:48:27.645Z,5.05
2023-02-27T23:50:57.477Z,5.45
2023-02-27T23:53:23.897Z,4.88
2023-02-27T23:55:50.316Z,4.60
2023-02-27T23:58:16.773Z,4.55
